Time;durP1;ratioP1;P1;durP2;ratioP2;P2;SDS_P1;SDS_P2;PMS_P1;PMS_P2;Temp;Humidity;BMP_temperature;BMP_pressure;BME280_temperature;BME280_humidity;BME280_pressure;Samples;Min_cycle;Max_cycle;Signal;HPM_P1;HPM_P2
2022/09/21 00:01:28;;;;;;;2.25;2.05;;;18.10;54.30;;;;;;5015060;28;20204;-74
2022/09/21 00:03:56;;;;;;;2.22;2.10;;;18.10;54.30;;;;;;5013927;28;20203;-74
2022/09/21 00:06:26;;;;;;;2.20;2.10;;;18.10;54.20;;;;;;5014005;28;20197;-74
2022/09/21 00:08:53;;;;;;;2.30;2.10;;;18.10;54.20;;;;;;5013979;28;20225;-74
2022/09/21 00:11:23;;;;;;;2.30;2.08;;;18.10;54.30;;;;;;5014014;28;20225;-74
2022/09/21 00:13:53;;;;;;;2.10;1.90;;;18.10;54.40;;;;;;5014638;28;20235;-74
2022/09/21 00:16:19;;;;;;;2.30;2.10;;;18.10;54.40;;;;;;5014540;28;20222;-74
2022/09/21 00:18:47;;;;;;;2.40;2.20;;;18.10;54.40;;;;;;5014316;28;20313;-74
2022/09/21 00:21:15;;;;;;;2.80;2.28;;;18.00;54.30;;;;;;5013594;28;20196;-74
2022/09/21 00:23:44;;;;;;;2.25;2.05;;;18.10;54.40;;;;;;5013521;28;20220;-74
2022/09/21 00:26:12;;;;;;;2.28;2.08;;;18.10;54.50;;;;;;5013659;28;20227;-75
2022/09/21 00:28:40;;;;;;;2.53;2.05;;;18.10;54.50;;;;;;5013426;28;20286;-75
2022/09/21 00:31:11;;;;;;;2.88;2.20;;;18.00;54.40;;;;;;5013444;28;20235;-74
2022/09/21 00:33:38;;;;;;;1.98;1.85;;;18.00;54.40;;;;;;5013431;28;20193;-74
2022/09/21 00:36:06;;;;;;;2.63;2.38;;;18.00;54.50;;;;;;5013377;28;20217;-74
2022/09/21 00:38:33;;;;;;;2.17;2.00;;;18.00;54.50;;;;;;5013353;28;20222;-74
2022/09/21 00:41:01;;;;;;;2.15;1.90;;;18.00;54.50;;;;;;5013255;28;20197;-74
2022/09/21 00:43:28;;;;;;;2.00;1.90;;;18.00;54.50;;;;;;5013250;28;20283;-74
2022/09/21 00:45:59;;;;;;;2.08;1.95;;;18.00;54.50;;;;;;5013257;28;20255;-74
2022/09/21 00:48:27;;;;;;;2.40;2.20;;;18.00;54.60;;;;;;5013286;28;20577;-74
2022/09/21 00:50:54;;;;;;;2.17;2.08;;;17.90;54.50;;;;;;5014198;28;20197;-74
2022/09/21 00:53:22;;;;;;;2.08;1.90;;;17.90;54.50;;;;;;5013100;28;20196;-74
2022/09/21 00:55:49;;;;;;;2.47;2.22;;;17.90;54.60;;;;;;5014150;28;20294;-74
2022/09/21 00:58:23;;;;;;;2.45;2.25;;;17.90;54.60;;;;;;5012770;28;20279;-74
2022/09/21 01:00:49;;;;;;;2.42;2.22;;;17.90;54.60;;;;;;5013148;28;20193;-73
2022/09/21 01:03:17;;;;;;;2.30;2.10;;;17.90;54.60;;;;;;5014311;28;20192;-73
2022/09/21 01:05:44;;;;;;;2.42;2.22;;;17.90;54.60;;;;;;4997073;28;20196;-73
2022/09/21 01:08:11;;;;;;;2.15;2.05;;;17.90;54.60;;;;;;5013705;28;20200;-73
2022/09/21 01:10:49;;;;;;;2.08;1.98;;;17.90;54.70;;;;;;5012497;28;20216;-73
2022/09/21 01:13:22;;;;;;;2.15;2.05;;;17.90;54.70;;;;;;5012901;28;20713;-73
2022/09/21 01:15:51;;;;;;;2.28;2.10;;;17.90;54.70;;;;;;5012866;28;20232;-73
2022/09/21 01:18:21;;;;;;;2.35;2.15;;;17.90;54.70;;;;;;5012721;28;20197;-73
2022/09/21 01:21:08;;;;;;;2.38;2.17;;;17.90;54.80;;;;;;5012671;28;20683;-73
2022/09/21 01:23:56;;;;;;;2.20;2.10;;;17.80;54.70;;;;;;5012703;28;20196;-73
2022/09/21 01:26:26;;;;;;;2.30;2.10;;;17.80;54.80;;;;;;5012858;28;20247;-73
2022/09/21 01:29:13;;;;;;;2.20;2.00;;;17.80;54.80;;;;;;5012599;28;20224;-73
2022/09/21 01:31:44;;;;;;;2.17;2.05;;;17.80;54.80;;;;;;5012698;28;20283;-73
2022/09/21 01:34:15;;;;;;;2.38;2.20;;;17.80;54.80;;;;;;5012682;28;20205;-73
2022/09/21 01:36:42;;;;;;;2.35;2.20;;;17.80;54.80;;;;;;5012628;28;20244;-73
2022/09/21 01:39:11;;;;;;;1.98;1.88;;;17.70;54.70;;;;;;5012547;28;20220;-75
2022/09/21 01:41:38;;;;;;;2.42;2.22;;;17.80;54.80;;;;;;5013816;28;20665;-74
2022/09/21 01:44:08;;;;;;;2.50;2.30;;;17.80;54.90;;;;;;5012879;28;20205;-74
2022/09/21 01:46:36;;;;;;;2.58;2.25;;;17.80;54.90;;;;;;5013720;28;20180;-74
2022/09/21 01:49:05;;;;;;;2.42;2.22;;;17.80;54.80;;;;;;5012420;28;20699;-74
2022/09/21 01:51:32;;;;;;;2.10;2.00;;;17.80;54.90;;;;;;5012607;28;20201;-74
2022/09/21 01:54:01;;;;;;;2.20;2.00;;;17.80;54.90;;;;;;5012395;28;20197;-74
2022/09/21 01:56:32;;;;;;;2.38;2.17;;;17.80;54.90;;;;;;5012392;28;20683;-74
2022/09/21 01:59:03;;;;;;;2.38;2.17;;;17.70;54.90;;;;;;5012326;28;20719;-74
2022/09/21 02:01:32;;;;;;;2.40;2.20;;;17.70;54.80;;;;;;5013141;28;20220;-74
2022/09/21 02:04:00;;;;;;;2.55;2.35;;;17.70;54.60;;;;;;5012551;28;20224;-74
2022/09/21 02:06:27;;;;;;;2.22;2.13;;;17.70;54.70;;;;;;5012354;28;20193;-74
2022/09/21 02:08:54;;;;;;;2.88;2.40;;;17.70;54.80;;;;;;5013709;28;20220;-74
2022/09/21 02:11:21;;;;;;;2.70;2.40;;;17.70;54.80;;;;;;5013179;28;20556;-74
2022/09/21 02:13:50;;;;;;;2.50;2.30;;;17.70;54.90;;;;;;5012180;28;20212;-74
2022/09/21 02:16:39;;;;;;;2.38;2.17;;;17.60;54.80;;;;;;5012369;28;20636;-74
2022/09/21 02:19:13;;;;;;;2.58;2.38;;;17.70;54.90;;;;;;5012188;28;20707;-74
2022/09/21 02:21:50;;;;;;;2.20;2.10;;;17.60;54.90;;;;;;5013156;28;20210;-74
2022/09/21 02:24:22;;;;;;;2.50;2.30;;;17.60;54.90;;;;;;5016210;28;20208;-74
2022/09/21 02:26:53;;;;;;;2.33;2.20;;;17.60;54.90;;;;;;5015682;28;20193;-74
2022/09/21 02:29:22;;;;;;;2.55;2.35;;;17.60;55.00;;;;;;5015767;28;20220;-74
2022/09/21 02:31:52;;;;;;;2.55;2.35;;;17.60;55.00;;;;;;5015720;28;20196;-74
2022/09/21 02:34:22;;;;;;;2.70;2.50;;;17.60;55.00;;;;;;5015770;28;20189;-74
2022/09/21 02:36:49;;;;;;;2.40;2.20;;;17.60;55.00;;;;;;5016638;28;20687;-74
2022/09/21 02:39:18;;;;;;;2.63;2.30;;;17.60;55.00;;;;;;5015493;28;20231;-74
2022/09/21 02:41:50;;;;;;;2.63;2.42;;;17.50;55.00;;;;;;5016755;28;20212;-74
2022/09/21 02:44:19;;;;;;;2.88;2.67;;;17.50;55.00;;;;;;5015538;28;20224;-74
2022/09/21 02:46:48;;;;;;;2.60;2.40;;;17.50;55.00;;;;;;5015361;28;20199;-74
2022/09/21 02:49:18;;;;;;;2.40;2.22;;;17.50;55.00;;;;;;5016180;28;20271;-74
2022/09/21 02:51:46;;;;;;;2.47;2.28;;;17.50;55.10;;;;;;5015291;28;20207;-73
2022/09/21 02:54:14;;;;;;;2.70;2.50;;;17.50;55.00;;;;;;5015202;28;20204;-73
2022/09/21 02:56:41;;;;;;;2.45;2.25;;;17.50;55.10;;;;;;5015181;28;20221;-73
2022/09/21 02:59:08;;;;;;;2.60;2.40;;;17.50;55.60;;;;;;5015183;28;20224;-73
2022/09/21 03:01:35;;;;;;;2.70;2.50;;;17.50;55.00;;;;;;5015141;28;20291;-73
2022/09/21 03:04:02;;;;;;;2.38;2.17;;;17.50;54.90;;;;;;5015367;28;20207;-73
2022/09/21 03:06:31;;;;;;;2.47;2.28;;;17.50;54.80;;;;;;5015968;28;20201;-73
2022/09/21 03:08:57;;;;;;;2.55;2.35;;;17.50;54.60;;;;;;5014949;28;20225;-73
2022/09/21 03:11:25;;;;;;;2.60;2.40;;;17.50;54.30;;;;;;5014738;28;20197;-73
2022/09/21 03:13:52;;;;;;;2.53;2.33;;;17.50;53.90;;;;;;5014870;28;20215;-73
2022/09/21 03:16:19;;;;;;;2.60;2.40;;;17.50;53.90;;;;;;5015754;28;20220;-73
2022/09/21 03:18:46;;;;;;;2.40;2.20;;;17.50;53.90;;;;;;5014648;28;20224;-73
2022/09/21 03:21:15;;;;;;;2.33;2.13;;;17.50;54.00;;;;;;5014645;28;20660;-73
2022/09/21 03:23:43;;;;;;;2.58;2.38;;;17.50;54.30;;;;;;5014638;28;20563;-73
2022/09/21 03:26:10;;;;;;;2.72;2.53;;;17.50;54.30;;;;;;5014581;28;20652;-73
2022/09/21 03:28:37;;;;;;;2.65;2.30;;;17.50;54.50;;;;;;5015746;28;20267;-73
2022/09/21 03:31:05;;;;;;;2.65;2.45;;;17.50;54.70;;;;;;5014797;28;20255;-73
2022/09/21 03:33:32;;;;;;;2.47;2.28;;;17.50;54.70;;;;;;5015043;28;20622;-73
2022/09/21 03:35:59;;;;;;;2.70;2.50;;;17.50;54.70;;;;;;5014289;28;20247;-73
2022/09/21 03:38:26;;;;;;;2.60;2.40;;;17.50;54.70;;;;;;5014328;28;20204;-73
2022/09/21 03:40:57;;;;;;;3.35;2.53;;;17.60;54.60;;;;;;5015930;28;20231;-74
2022/09/21 03:43:23;;;;;;;2.60;2.40;;;17.60;54.50;;;;;;5014394;28;20216;-74
2022/09/21 03:45:50;;;;;;;2.47;2.28;;;17.60;54.40;;;;;;5014272;28;20197;-74
2022/09/21 03:48:17;;;;;;;2.72;2.53;;;17.60;54.30;;;;;;5014046;28;20238;-74
2022/09/21 03:50:44;;;;;;;2.70;2.50;;;17.60;54.30;;;;;;5014178;28;20207;-74
2022/09/21 03:53:11;;;;;;;2.17;2.03;;;17.60;54.30;;;;;;5015197;28;20200;-74
2022/09/21 03:55:38;;;;;;;2.50;2.30;;;17.70;54.40;;;;;;5015487;28;20211;-74
2022/09/21 03:58:07;;;;;;;2.70;2.50;;;17.70;54.30;;;;;;5013854;28;20209;-74
2022/09/21 04:00:35;;;;;;;2.30;2.20;;;17.60;54.40;;;;;;5013887;28;20638;-74
2022/09/21 04:03:02;;;;;;;2.58;2.38;;;17.60;55.00;;;;;;5014036;28;20563;-74
2022/09/21 04:05:28;;;;;;;2.50;2.30;;;17.60;54.50;;;;;;5014107;28;20212;-74
2022/09/21 04:07:56;;;;;;;2.70;2.50;;;17.60;54.50;;;;;;5014194;28;20570;-75
2022/09/21 04:10:31;;;;;;;2.47;2.28;;;17.60;54.50;;;;;;5013910;28;20319;-74
2022/09/21 04:12:59;;;;;;;2.53;2.33;;;17.60;54.60;;;;;;5013911;28;20200;-75
2022/09/21 04:15:28;;;;;;;2.45;2.25;;;17.60;54.60;;;;;;4997724;28;20200;-74
2022/09/21 04:17:55;;;;;;;2.60;2.40;;;17.50;54.50;;;;;;5014594;28;20255;-74
2022/09/21 04:20:22;;;;;;;2.40;2.20;;;17.50;54.50;;;;;;5014384;28;20638;-74
2022/09/21 04:22:50;;;;;;;2.38;2.20;;;17.50;54.50;;;;;;5013647;28;20204;-74
2022/09/21 04:25:17;;;;;;;2.78;2.58;;;17.50;54.50;;;;;;5013544;28;20229;-74
2022/09/21 04:27:44;;;;;;;2.50;2.30;;;17.50;54.40;;;;;;5013755;28;20224;-74
2022/09/21 04:30:12;;;;;;;2.45;2.25;;;17.60;54.50;;;;;;5014610;28;20221;-74
2022/09/21 04:32:40;;;;;;;2.50;2.30;;;17.50;54.40;;;;;;5014395;28;20196;-74
2022/09/21 04:35:08;;;;;;;2.70;2.50;;;17.60;54.40;;;;;;5013791;28;20620;-74
2022/09/21 04:37:35;;;;;;;2.63;2.42;;;17.50;54.30;;;;;;5014419;28;20287;-73
2022/09/21 04:40:03;;;;;;;2.40;2.20;;;17.60;54.30;;;;;;5013355;28;20266;-73
2022/09/21 04:42:30;;;;;;;2.45;2.25;;;17.60;54.30;;;;;;5013023;28;20205;-73
2022/09/21 04:44:57;;;;;;;3.20;2.50;;;17.50;54.10;;;;;;5012608;28;20207;-73
2022/09/21 04:47:24;;;;;;;2.50;2.30;;;17.50;54.00;;;;;;5013443;28;20563;-73
2022/09/21 04:49:53;;;;;;;2.72;2.53;;;17.50;54.00;;;;;;5013156;28;20278;-73
2022/09/21 04:52:20;;;;;;;2.60;2.40;;;17.50;54.00;;;;;;5013168;28;20196;-73
2022/09/21 04:54:47;;;;;;;2.20;2.10;;;17.50;54.00;;;;;;5013756;28;20569;-73
2022/09/21 04:57:14;;;;;;;2.75;2.50;;;17.50;54.10;;;;;;5013040;28;20300;-73
2022/09/21 04:59:42;;;;;;;2.40;2.20;;;17.50;54.10;;;;;;5013284;28;20259;-73
2022/09/21 05:02:08;;;;;;;2.50;2.30;;;17.40;54.00;;;;;;4996535;28;20235;-73
2022/09/21 05:04:36;;;;;;;2.17;2.08;;;17.40;54.00;;;;;;5013388;28;20630;-72
2022/09/21 05:07:05;;;;;;;3.35;2.60;;;17.40;54.10;;;;;;5013015;28;20219;-72
2022/09/21 05:12:17;;;;;;;2.88;2.67;;;17.40;53.20;;;;;;5013251;28;20195;-73
2022/09/21 05:14:44;;;;;;;3.90;3.00;;;17.40;52.70;;;;;;5013251;28;20197;-73
2022/09/21 05:17:11;;;;;;;3.38;3.08;;;17.40;53.40;;;;;;5012781;28;20213;-73
2022/09/21 05:19:38;;;;;;;3.00;2.80;;;17.30;53.60;;;;;;5012759;28;20726;-73
2022/09/21 05:22:06;;;;;;;4.25;3.00;;;17.40;53.50;;;;;;5013151;28;20270;-73
2022/09/21 05:24:33;;;;;;;3.20;2.55;;;17.40;53.60;;;;;;5013040;28;20631;-73
2022/09/21 05:27:00;;;;;;;3.13;2.92;;;17.40;53.70;;;;;;4996545;28;20192;-73
2022/09/21 05:29:28;;;;;;;3.40;3.10;;;17.30;53.40;;;;;;5012504;28;20647;-73
2022/09/21 05:31:57;;;;;;;3.20;2.90;;;17.40;53.60;;;;;;5012613;28;20201;-73
2022/09/21 05:34:31;;;;;;;3.30;2.80;;;17.40;53.50;;;;;;5012658;28;20563;-73
2022/09/21 05:37:01;;;;;;;3.38;3.08;;;17.30;53.30;;;;;;5012791;28;20208;-73
2022/09/21 05:39:30;;;;;;;3.63;3.28;;;17.30;53.10;;;;;;5012582;28;20271;-73
2022/09/21 05:41:57;;;;;;;3.35;3.05;;;17.30;53.30;;;;;;5012562;28;20204;-73
2022/09/21 05:44:25;;;;;;;3.53;2.80;;;17.30;53.20;;;;;;5012562;28;20215;-73
2022/09/21 05:46:55;;;;;;;2.95;2.75;;;17.30;53.10;;;;;;5012420;28;20229;-73
2022/09/21 05:49:22;;;;;;;3.15;2.85;;;17.30;52.90;;;;;;5012535;28;20217;-72
2022/09/21 05:51:56;;;;;;;2.90;2.65;;;17.30;52.70;;;;;;5012497;28;20201;-72
2022/09/21 05:54:28;;;;;;;3.22;2.88;;;17.30;52.40;;;;;;5013466;28;20200;-72
2022/09/21 05:56:59;;;;;;;3.67;3.20;;;17.40;52.20;;;;;;5014634;28;20767;-72
2022/09/21 05:59:34;;;;;;;4.15;3.15;;;17.30;52.10;;;;;;5017538;28;20212;-71
2022/09/21 06:02:04;;;;;;;3.10;2.78;;;17.40;51.90;;;;;;5017575;28;20180;-72
2022/09/21 06:04:32;;;;;;;3.22;2.92;;;17.40;52.30;;;;;;5016301;28;20640;-72
2022/09/21 06:06:59;;;;;;;4.75;2.90;;;17.40;51.70;;;;;;5015967;28;20204;-73
2022/09/21 06:09:26;;;;;;;3.10;2.80;;;17.40;51.90;;;;;;5016127;28;20218;-73
2022/09/21 06:11:53;;;;;;;3.20;2.90;;;17.40;51.90;;;;;;5016492;28;20622;-73
2022/09/21 06:14:24;;;;;;;3.50;2.92;;;17.40;52.50;;;;;;5016978;28;20295;-73
2022/09/21 06:16:51;;;;;;;2.90;2.70;;;17.40;52.50;;;;;;5015920;28;20220;-72
2022/09/21 06:19:18;;;;;;;2.85;2.65;;;17.40;52.30;;;;;;5017376;28;20643;-72
2022/09/21 06:21:45;;;;;;;3.55;2.80;;;17.40;52.50;;;;;;5019710;28;20197;-72
2022/09/21 06:24:12;;;;;;;4.28;2.97;;;17.40;52.00;;;;;;5016096;28;20254;-74
2022/09/21 06:26:39;;;;;;;3.25;2.92;;;17.50;52.30;;;;;;5015939;28;20648;-73
2022/09/21 06:29:06;;;;;;;3.05;2.85;;;17.50;52.60;;;;;;5015767;28;20236;-73
2022/09/21 06:31:35;;;;;;;4.57;3.33;;;17.50;52.50;;;;;;5015660;28;20295;-73
2022/09/21 06:34:02;;;;;;;5.70;3.63;;;17.50;52.60;;;;;;5015631;28;20197;-73
2022/09/21 06:36:29;;;;;;;4.93;3.22;;;17.50;52.60;;;;;;5015541;28;20204;-73
2022/09/21 06:38:56;;;;;;;4.55;3.20;;;17.50;52.60;;;;;;5016315;28;20217;-73
2022/09/21 06:41:23;;;;;;;4.63;3.33;;;17.50;52.60;;;;;;5015585;28;20197;-73
2022/09/21 06:43:53;;;;;;;3.50;2.95;;;17.50;53.10;;;;;;5015423;28;20204;-73
2022/09/21 06:46:21;;;;;;;3.78;3.05;;;17.50;52.50;;;;;;5015503;28;20192;-73
2022/09/21 06:48:49;;;;;;;3.88;2.92;;;17.50;52.40;;;;;;5015446;28;20703;-73
2022/09/21 06:51:19;;;;;;;3.13;2.92;;;17.50;52.20;;;;;;5015434;28;20216;-73
2022/09/21 06:53:46;;;;;;;3.58;3.03;;;17.60;52.20;;;;;;5015314;28;20576;-73
2022/09/21 06:56:14;;;;;;;5.78;3.35;;;17.60;52.00;;;;;;5015357;28;20193;-73
2022/09/21 06:58:41;;;;;;;4.07;3.30;;;17.70;52.00;;;;;;5016183;28;20239;-73
2022/09/21 07:01:08;;;;;;;3.67;2.83;;;17.70;52.00;;;;;;5015150;28;20205;-73
2022/09/21 07:03:35;;;;;;;4.22;2.85;;;17.70;52.40;;;;;;5015159;28;20204;-73
2022/09/21 07:06:03;;;;;;;4.07;2.90;;;17.90;52.40;;;;;;5016214;28;20196;-72
2022/09/21 07:08:30;;;;;;;4.18;2.92;;;18.10;51.90;;;;;;5014434;28;20197;-72
2022/09/21 07:10:58;;;;;;;4.05;3.08;;;18.40;51.50;;;;;;5014915;28;20220;-72
2022/09/21 07:13:25;;;;;;;3.50;3.20;;;18.70;50.90;;;;;;5015041;28;20282;-72
2022/09/21 07:15:52;;;;;;;4.38;3.25;;;19.00;50.20;;;;;;5014964;28;20220;-72
2022/09/21 07:18:20;;;;;;;3.78;3.28;;;19.30;49.60;;;;;;5015728;28;20263;-72
2022/09/21 07:20:47;;;;;;;3.70;3.03;;;19.50;49.10;;;;;;5015003;28;20287;-72
2022/09/21 07:23:17;;;;;;;3.13;2.60;;;19.80;48.60;;;;;;5014672;28;20188;-72
2022/09/21 07:25:44;;;;;;;3.03;2.70;;;20.00;48.10;;;;;;5014575;28;20660;-72
2022/09/21 07:28:11;;;;;;;4.82;2.80;;;20.10;47.70;;;;;;5015044;28;20197;-72
2022/09/21 07:30:39;;;;;;;3.47;3.00;;;20.30;47.50;;;;;;5014556;28;20197;-72
2022/09/21 07:33:06;;;;;;;3.58;2.90;;;20.50;47.10;;;;;;5014552;28;20304;-72
2022/09/21 07:35:33;;;;;;;4.18;3.08;;;20.60;46.80;;;;;;5014528;28;20197;-72
2022/09/21 07:38:00;;;;;;;4.85;3.10;;;20.70;46.30;;;;;;5014512;28;20602;-72
2022/09/21 07:40:28;;;;;;;4.43;2.88;;;20.90;46.30;;;;;;5014445;28;20224;-72
2022/09/21 07:42:57;;;;;;;3.83;2.83;;;21.00;46.00;;;;;;5015519;28;20258;-72
2022/09/21 07:45:24;;;;;;;5.30;2.92;;;21.10;45.80;;;;;;5014520;28;20201;-73
2022/09/21 07:47:53;;;;;;;6.18;3.50;;;21.20;45.20;;;;;;5014405;28;20251;-73
2022/09/21 07:50:20;;;;;;;4.35;3.08;;;21.40;45.00;;;;;;5014414;28;20229;-73
2022/09/21 07:52:47;;;;;;;5.22;3.38;;;21.50;44.90;;;;;;5014270;28;20672;-73
2022/09/21 07:55:14;;;;;;;4.72;3.08;;;21.60;44.70;;;;;;5014211;28;20211;-73
2022/09/21 08:00:31;;;;;;;5.40;3.40;;;21.70;43.90;;;;;;5014851;28;20710;-73
2022/09/21 08:02:58;;;;;;;4.10;3.00;;;21.90;43.60;;;;;;5015736;28;20205;-73
2022/09/21 08:05:25;;;;;;;4.07;2.85;;;21.90;43.40;;;;;;5014227;28;20201;-73
2022/09/21 08:07:55;;;;;;;5.72;3.10;;;22.00;43.20;;;;;;5014156;28;20296;-73
2022/09/21 08:10:22;;;;;;;4.13;3.00;;;22.10;43.10;;;;;;5015096;28;20263;-73
2022/09/21 08:12:51;;;;;;;4.38;3.00;;;22.20;43.00;;;;;;5015354;28;20196;-73
2022/09/21 08:15:18;;;;;;;4.57;3.00;;;22.30;42.50;;;;;;5013899;28;20221;-73
2022/09/21 08:17:45;;;;;;;4.55;2.83;;;22.40;42.50;;;;;;5013654;28;20251;-73
2022/09/21 08:20:12;;;;;;;3.80;2.88;;;22.40;42.20;;;;;;5013144;28;20670;-73
2022/09/21 08:22:39;;;;;;;4.38;2.92;;;22.50;42.60;;;;;;5014911;28;20188;-73
2022/09/21 08:25:07;;;;;;;4.38;3.05;;;22.50;42.70;;;;;;5013613;28;20204;-73
2022/09/21 08:27:33;;;;;;;4.65;3.03;;;22.60;41.70;;;;;;5013703;28;20197;-72
2022/09/21 08:30:02;;;;;;;3.67;2.88;;;22.70;41.90;;;;;;5013436;28;20320;-72
2022/09/21 08:32:30;;;;;;;4.85;3.10;;;22.70;41.90;;;;;;5013737;28;20223;-72
2022/09/21 08:34:57;;;;;;;4.50;2.90;;;22.80;42.00;;;;;;5013451;28;20643;-72
2022/09/21 08:37:23;;;;;;;4.85;2.97;;;22.80;42.00;;;;;;5013529;28;20209;-72
2022/09/21 08:39:51;;;;;;;3.70;2.85;;;22.90;42.00;;;;;;5013270;28;20697;-72
2022/09/21 08:42:31;;;;;;;4.20;2.92;;;23.00;42.20;;;;;;5013382;28;20207;-72
2022/09/21 08:45:00;;;;;;;3.03;2.70;;;23.00;42.00;;;;;;5014798;28;20177;-72
2022/09/21 08:47:33;;;;;;;3.25;2.95;;;23.10;41.80;;;;;;5013257;28;20284;-72
2022/09/21 08:50:00;;;;;;;5.00;2.90;;;23.10;41.70;;;;;;5013825;28;20323;-72
2022/09/21 08:52:27;;;;;;;3.38;2.65;;;23.20;41.50;;;;;;5013624;28;20214;-73
2022/09/21 08:54:55;;;;;;;3.80;2.42;;;23.20;41.30;;;;;;5013079;28;20288;-73
2022/09/21 08:57:22;;;;;;;4.43;2.95;;;23.20;41.20;;;;;;5013590;28;20224;-73
2022/09/21 08:59:49;;;;;;;4.13;2.50;;;23.30;41.10;;;;;;5013327;28;20274;-73
2022/09/21 09:02:37;;;;;;;5.90;3.00;;;23.30;41.10;;;;;;5013054;28;20208;-73
2022/09/21 09:05:08;;;;;;;3.45;2.55;;;23.30;41.00;;;;;;5012927;28;20201;-73
2022/09/21 09:07:47;;;;;;;4.28;2.50;;;23.30;40.70;;;;;;5013744;28;20239;-73
2022/09/21 09:10:20;;;;;;;3.10;2.60;;;23.40;40.70;;;;;;5014030;28;20213;-73
2022/09/21 09:12:56;;;;;;;3.15;2.75;;;23.40;40.50;;;;;;5013067;28;20181;-73
2022/09/21 09:15:33;;;;;;;3.63;2.65;;;23.40;40.50;;;;;;5012961;28;20201;-73
2022/09/21 09:18:05;;;;;;;3.28;2.50;;;23.40;41.20;;;;;;5012740;28;20208;-73
2022/09/21 09:20:34;;;;;;;2.63;2.42;;;23.40;40.60;;;;;;5012792;28;20220;-73
2022/09/21 09:23:06;;;;;;;4.47;2.80;;;23.40;40.50;;;;;;5013380;28;20193;-73
2022/09/21 09:25:35;;;;;;;4.40;3.03;;;23.50;41.20;;;;;;5013562;28;20212;-73
2022/09/21 09:28:04;;;;;;;2.80;2.50;;;23.50;40.60;;;;;;5013260;28;20196;-73
2022/09/21 09:30:33;;;;;;;3.33;2.63;;;23.50;40.70;;;;;;5012722;28;20692;-73
2022/09/21 09:33:05;;;;;;;2.95;2.60;;;23.50;40.80;;;;;;5016416;28;20547;-73
2022/09/21 09:35:35;;;;;;;3.97;2.42;;;23.50;40.80;;;;;;5016935;28;20292;-73
2022/09/21 09:38:04;;;;;;;3.97;2.80;;;23.60;40.70;;;;;;5017896;28;20205;-73
2022/09/21 09:40:53;;;;;;;4.22;2.70;;;23.60;40.70;;;;;;5017884;28;20231;-73
2022/09/21 09:43:27;;;;;;;3.28;2.80;;;23.60;40.90;;;;;;5016510;28;20208;-73
2022/09/21 09:45:59;;;;;;;3.55;2.80;;;23.60;41.00;;;;;;5016518;28;20305;-73
2022/09/21 09:48:45;;;;;;;2.97;2.55;;;23.60;41.10;;;;;;5016900;28;20190;-73
2022/09/21 09:51:12;;;;;;;3.00;2.25;;;23.50;41.10;;;;;;5016941;28;20205;-73
2022/09/21 09:53:40;;;;;;;2.83;2.25;;;23.50;41.00;;;;;;5016464;28;20231;-73
2022/09/21 09:56:08;;;;;;;3.75;2.50;;;23.60;41.10;;;;;;5016422;28;20207;-73
2022/09/21 09:58:38;;;;;;;3.30;2.45;;;23.60;40.90;;;;;;5017100;28;20224;-73
2022/09/21 10:01:05;;;;;;;3.42;2.45;;;23.50;40.90;;;;;;5016693;28;20197;-73
2022/09/21 10:03:32;;;;;;;3.05;2.42;;;23.40;41.10;;;;;;5016611;28;20204;-73
2022/09/21 10:06:00;;;;;;;2.65;2.45;;;23.20;41.40;;;;;;5016074;28;20202;-73
2022/09/21 10:08:30;;;;;;;3.78;2.50;;;23.20;41.60;;;;;;5016068;28;20570;-74
2022/09/21 10:10:57;;;;;;;3.80;2.97;;;23.10;41.70;;;;;;5016610;28;20203;-74
2022/09/21 10:13:26;;;;;;;2.67;2.47;;;23.10;42.10;;;;;;5016131;28;20291;-74
2022/09/21 10:15:55;;;;;;;2.42;2.22;;;23.00;42.30;;;;;;5016075;28;20255;-74
2022/09/21 10:18:23;;;;;;;2.83;2.53;;;22.90;42.40;;;;;;5015891;28;20248;-72
2022/09/21 10:20:55;;;;;;;2.67;2.33;;;22.80;42.60;;;;;;5016107;28;20200;-72
2022/09/21 10:23:23;;;;;;;3.08;2.40;;;22.70;42.80;;;;;;5015939;28;20251;-72
2022/09/21 10:25:57;;;;;;;3.50;2.50;;;22.60;43.00;;;;;;5015809;28;20617;-72
2022/09/21 10:28:25;;;;;;;3.08;2.30;;;22.60;43.00;;;;;;5016146;28;20635;-72
2022/09/21 10:31:07;;;;;;;2.53;2.30;;;22.60;43.20;;;;;;5015936;28;20205;-72
2022/09/21 10:33:34;;;;;;;3.03;2.45;;;22.50;43.20;;;;;;5016790;28;20213;-72
2022/09/21 10:36:01;;;;;;;2.78;2.47;;;22.60;43.20;;;;;;5015674;28;20690;-72
2022/09/21 10:38:31;;;;;;;2.50;2.30;;;22.60;43.10;;;;;;5015478;28;20290;-72
2022/09/21 10:40:58;;;;;;;3.03;2.30;;;22.70;43.10;;;;;;5017057;28;20236;-72
2022/09/21 10:43:28;;;;;;;2.72;2.40;;;22.70;43.10;;;;;;5014464;28;20259;-72
2022/09/21 10:45:56;;;;;;;2.85;2.30;;;22.70;43.10;;;;;;5015415;28;20207;-72
2022/09/21 10:48:24;;;;;;;2.13;1.92;;;22.60;43.30;;;;;;5015664;28;20283;-72
2022/09/21 10:50:51;;;;;;;3.60;2.10;;;22.50;43.20;;;;;;5015342;28;20647;-73
2022/09/21 10:53:22;;;;;;;2.45;2.20;;;22.40;43.50;;;;;;5016357;28;20231;-73
2022/09/21 10:55:53;;;;;;;2.60;2.40;;;22.40;43.70;;;;;;5015097;28;20731;-73
2022/09/21 10:58:20;;;;;;;2.33;2.13;;;22.30;43.70;;;;;;5015319;28;20677;-74
2022/09/21 11:00:50;;;;;;;2.65;2.20;;;22.30;43.80;;;;;;5016402;28;20192;-74
2022/09/21 11:03:41;;;;;;;2.60;2.20;;;22.30;44.00;;;;;;5015450;28;20291;-74
2022/09/21 11:06:11;;;;;;;2.33;1.90;;;22.20;44.50;;;;;;5015163;28;20304;-74
2022/09/21 11:08:43;;;;;;;2.92;2.00;;;22.30;43.90;;;;;;5014954;28;20750;-74
2022/09/21 11:11:21;;;;;;;3.35;2.05;;;22.30;43.90;;;;;;5015002;28;20193;-74
2022/09/21 11:13:50;;;;;;;2.28;2.08;;;22.30;43.90;;;;;;5016041;28;20197;-73
2022/09/21 11:16:20;;;;;;;2.05;1.85;;;22.30;43.90;;;;;;5014977;28;20207;-73
2022/09/21 11:18:52;;;;;;;2.55;2.10;;;22.40;44.00;;;;;;5014646;28;20236;-73
2022/09/21 11:21:22;;;;;;;2.40;2.10;;;22.40;44.00;;;;;;5016089;28;20629;-74
2022/09/21 11:23:55;;;;;;;1.92;1.83;;;22.40;44.10;;;;;;5015950;28;20199;-74
2022/09/21 11:26:25;;;;;;;1.90;1.80;;;22.40;44.10;;;;;;5016232;28;20506;-74
2022/09/21 11:28:55;;;;;;;2.20;2.00;;;22.40;44.10;;;;;;5015231;28;20212;-72
2022/09/21 11:31:34;;;;;;;2.63;2.10;;;22.40;44.10;;;;;;5015988;28;20635;-72
2022/09/21 11:34:34;;;;;;;2.65;2.13;;;22.50;44.10;;;;;;5014650;28;20679;-72
2022/09/21 11:37:08;;;;;;;2.17;1.98;;;22.50;44.00;;;;;;5015374;28;20193;-72
2022/09/21 11:39:40;;;;;;;2.10;1.88;;;22.50;43.90;;;;;;5014422;28;20235;-72
2022/09/21 11:42:15;;;;;;;1.95;1.75;;;22.50;43.90;;;;;;5015017;28;20196;-73
2022/09/21 11:44:48;;;;;;;1.88;1.77;;;22.50;43.90;;;;;;5014508;28;20192;-73
2022/09/21 11:47:22;;;;;;;2.58;2.08;;;22.50;43.90;;;;;;5014312;28;20193;-73
2022/09/21 11:50:03;;;;;;;1.88;1.77;;;22.50;43.90;;;;;;5014183;28;20212;-73
2022/09/21 11:52:38;;;;;;;2.00;1.80;;;22.50;43.90;;;;;;5014258;28;20227;-73
2022/09/21 11:55:15;;;;;;;1.75;1.65;;;22.60;44.00;;;;;;5013923;28;20291;-73
2022/09/21 11:57:46;;;;;;;2.13;1.92;;;22.50;43.90;;;;;;5015223;28;20254;-73
2022/09/21 12:00:15;;;;;;;2.08;1.77;;;22.60;44.00;;;;;;4981654;28;20283;-73
2022/09/21 12:03:10;;;;;;;2.90;1.85;;;22.60;44.60;;;;;;5013964;28;20201;-73
2022/09/21 12:05:39;;;;;;;1.73;1.60;;;22.60;44.00;;;;;;5013910;28;20201;-73
2022/09/21 12:08:29;;;;;;;1.73;1.60;;;22.60;44.00;;;;;;5013861;28;20204;-73
2022/09/21 12:10:58;;;;;;;2.10;1.90;;;22.60;44.00;;;;;;5013917;28;20632;-73
2022/09/21 12:13:31;;;;;;;2.13;1.80;;;22.60;43.90;;;;;;5014117;28;20707;-73
2022/09/21 12:16:01;;;;;;;2.10;1.70;;;22.60;44.00;;;;;;5013946;28;20566;-73
2022/09/21 12:18:31;;;;;;;1.75;1.50;;;22.60;44.00;;;;;;5013705;28;20299;-73
2022/09/21 12:21:01;;;;;;;1.73;1.63;;;22.60;44.00;;;;;;5013621;28;20208;-73
2022/09/21 12:23:33;;;;;;;2.13;1.90;;;22.60;44.70;;;;;;5013678;28;20192;-73
2022/09/21 12:26:00;;;;;;;2.25;1.70;;;22.60;44.10;;;;;;5013645;28;20196;-73
2022/09/21 12:28:31;;;;;;;1.88;1.63;;;22.60;44.10;;;;;;5013445;28;20268;-73
2022/09/21 12:31:00;;;;;;;1.80;1.70;;;22.60;44.20;;;;;;4997553;28;20207;-74
2022/09/21 12:33:35;;;;;;;1.98;1.60;;;22.60;44.30;;;;;;5013917;28;20200;-74
2022/09/21 12:36:05;;;;;;;1.50;1.40;;;22.50;44.30;;;;;;5013503;28;20192;-74
2022/09/21 12:38:35;;;;;;;2.25;1.90;;;22.50;44.30;;;;;;5013271;28;20228;-74
2022/09/21 12:41:06;;;;;;;1.50;1.40;;;22.50;44.40;;;;;;5014279;28;20247;-74
2022/09/21 12:43:35;;;;;;;1.95;1.70;;;22.50;44.40;;;;;;5013673;28;20697;-74
2022/09/21 12:46:03;;;;;;;1.48;1.38;;;22.50;44.40;;;;;;5013397;28;20251;-74
2022/09/21 12:48:32;;;;;;;1.77;1.67;;;22.50;44.40;;;;;;5014146;28;20561;-74
2022/09/21 12:51:03;;;;;;;2.28;1.60;;;22.60;44.50;;;;;;5013516;28;20197;-74
2022/09/21 12:53:31;;;;;;;2.55;1.70;;;22.60;44.60;;;;;;5013868;28;20255;-74
2022/09/21 12:56:03;;;;;;;1.38;1.27;;;22.50;44.50;;;;;;5014410;28;20193;-73
2022/09/21 12:58:42;;;;;;;1.60;1.50;;;22.50;44.50;;;;;;5013007;28;20663;-73
2022/09/21 13:01:16;;;;;;;1.60;1.50;;;22.50;44.50;;;;;;5013074;28;20193;-74
2022/09/21 13:03:51;;;;;;;1.60;1.50;;;22.50;44.60;;;;;;5014147;28;20173;-74
2022/09/21 13:07:03;;;;;;;1.73;1.33;;;22.50;44.70;;;;;;5012567;28;20193;-74